sensor_id;sensor_type;location;lat;lon;timestamp;P1;durP1;ratioP1;P2;durP2;ratioP2
82783;SDS011;72520;55.762;37.780;2023-12-22T00:01:39;8.88;;;4.63;;
82783;SDS011;72520;55.762;37.780;2023-12-22T00:04:41;10.15;;;4.57;;
82783;SDS011;72520;55.762;37.780;2023-12-22T00:07:43;10.75;;;4.60;;
82783;SDS011;72520;55.762;37.780;2023-12-22T00:10:46;9.88;;;4.72;;
82783;SDS011;72520;55.762;37.780;2023-12-22T00:13:48;9.27;;;4.97;;
82783;SDS011;72520;55.762;37.780;2023-12-22T00:16:51;7.85;;;3.78;;
82783;SDS011;72520;55.762;37.780;2023-12-22T00:19:54;9.43;;;3.83;;
82783;SDS011;72520;55.762;37.780;2023-12-22T00:22:59;8.80;;;3.80;;
82783;SDS011;72520;55.762;37.780;2023-12-22T00:26:04;8.25;;;4.00;;
82783;SDS011;72520;55.762;37.780;2023-12-22T00:29:07;10.25;;;4.50;;
82783;SDS011;72520;55.762;37.780;2023-12-22T00:32:10;8.07;;;4.50;;
82783;SDS011;72520;55.762;37.780;2023-12-22T00:35:13;10.00;;;4.22;;
82783;SDS011;72520;55.762;37.780;2023-12-22T00:38:15;8.07;;;4.28;;
82783;SDS011;72520;55.762;37.780;2023-12-22T00:41:17;8.73;;;3.95;;
82783;SDS011;72520;55.762;37.780;2023-12-22T00:44:19;7.57;;;3.47;;
82783;SDS011;72520;55.762;37.780;2023-12-22T00:47:23;7.65;;;3.22;;
82783;SDS011;72520;55.762;37.780;2023-12-22T00:50:25;8.52;;;3.80;;
82783;SDS011;72520;55.762;37.780;2023-12-22T00:53:27;9.38;;;4.25;;
82783;SDS011;72520;55.762;37.780;2023-12-22T00:56:29;9.15;;;4.47;;
82783;SDS011;72520;55.762;37.780;2023-12-22T00:59:32;9.73;;;4.03;;
82783;SDS011;72520;55.762;37.780;2023-12-22T01:02:35;8.55;;;3.70;;
82783;SDS011;72520;55.762;37.780;2023-12-22T01:05:37;8.48;;;4.20;;
82783;SDS011;72520;55.762;37.780;2023-12-22T01:08:40;8.63;;;4.03;;
82783;SDS011;72520;55.762;37.780;2023-12-22T01:11:42;12.73;;;4.82;;
82783;SDS011;72520;55.762;37.780;2023-12-22T01:14:44;7.72;;;4.05;;
82783;SDS011;72520;55.762;37.780;2023-12-22T01:17:47;7.38;;;3.60;;
82783;SDS011;72520;55.762;37.780;2023-12-22T01:20:50;10.25;;;4.43;;
82783;SDS011;72520;55.762;37.780;2023-12-22T01:23:52;6.03;;;2.83;;
82783;SDS011;72520;55.762;37.780;2023-12-22T01:26:54;10.35;;;4.47;;
82783;SDS011;72520;55.762;37.780;2023-12-22T01:29:56;10.82;;;4.13;;
82783;SDS011;72520;55.762;37.780;2023-12-22T01:33:00;9.18;;;4.18;;
82783;SDS011;72520;55.762;37.780;2023-12-22T01:36:02;12.82;;;4.72;;
82783;SDS011;72520;55.762;37.780;2023-12-22T01:39:05;7.80;;;3.72;;
82783;SDS011;72520;55.762;37.780;2023-12-22T01:42:07;7.82;;;4.35;;
82783;SDS011;72520;55.762;37.780;2023-12-22T01:45:09;9.55;;;3.92;;
82783;SDS011;72520;55.762;37.780;2023-12-22T01:48:13;9.77;;;4.18;;
82783;SDS011;72520;55.762;37.780;2023-12-22T01:51:15;9.50;;;3.83;;
82783;SDS011;72520;55.762;37.780;2023-12-22T01:54:18;10.95;;;5.05;;
82783;SDS011;72520;55.762;37.780;2023-12-22T01:57:20;13.18;;;4.35;;
82783;SDS011;72520;55.762;37.780;2023-12-22T02:00:23;14.45;;;4.68;;
82783;SDS011;72520;55.762;37.780;2023-12-22T02:03:26;9.45;;;4.32;;
82783;SDS011;72520;55.762;37.780;2023-12-22T02:06:30;11.07;;;3.55;;
82783;SDS011;72520;55.762;37.780;2023-12-22T02:09:32;8.32;;;4.30;;
82783;SDS011;72520;55.762;37.780;2023-12-22T02:12:34;9.77;;;4.05;;
82783;SDS011;72520;55.762;37.780;2023-12-22T02:15:36;14.52;;;4.97;;
82783;SDS011;72520;55.762;37.780;2023-12-22T02:18:41;11.60;;;5.05;;
82783;SDS011;72520;55.762;37.780;2023-12-22T02:22:01;10.13;;;4.78;;
82783;SDS011;72520;55.762;37.780;2023-12-22T02:25:06;9.55;;;4.60;;
82783;SDS011;72520;55.762;37.780;2023-12-22T02:28:09;13.30;;;5.28;;
82783;SDS011;72520;55.762;37.780;2023-12-22T02:31:21;11.05;;;5.05;;
82783;SDS011;72520;55.762;37.780;2023-12-22T02:34:29;12.65;;;4.95;;
82783;SDS011;72520;55.762;37.780;2023-12-22T02:37:32;13.98;;;3.70;;
82783;SDS011;72520;55.762;37.780;2023-12-22T02:40:39;12.00;;;4.80;;
82783;SDS011;72520;55.762;37.780;2023-12-22T02:43:41;9.52;;;4.38;;
82783;SDS011;72520;55.762;37.780;2023-12-22T02:46:44;8.75;;;4.72;;
82783;SDS011;72520;55.762;37.780;2023-12-22T02:49:46;10.70;;;4.80;;
82783;SDS011;72520;55.762;37.780;2023-12-22T02:52:48;8.32;;;4.43;;
82783;SDS011;72520;55.762;37.780;2023-12-22T02:55:52;9.73;;;4.65;;
82783;SDS011;72520;55.762;37.780;2023-12-22T02:58:54;8.40;;;4.35;;
82783;SDS011;72520;55.762;37.780;2023-12-22T03:01:56;9.18;;;4.53;;
82783;SDS011;72520;55.762;37.780;2023-12-22T03:04:58;10.85;;;5.00;;
82783;SDS011;72520;55.762;37.780;2023-12-22T03:08:00;10.38;;;4.90;;
82783;SDS011;72520;55.762;37.780;2023-12-22T03:11:04;7.13;;;3.40;;
82783;SDS011;72520;55.762;37.780;2023-12-22T03:14:06;12.95;;;6.00;;
82783;SDS011;72520;55.762;37.780;2023-12-22T03:17:09;7.00;;;4.15;;
82783;SDS011;72520;55.762;37.780;2023-12-22T03:20:11;10.77;;;4.50;;
82783;SDS011;72520;55.762;37.780;2023-12-22T03:23:13;11.55;;;5.18;;
82783;SDS011;72520;55.762;37.780;2023-12-22T03:26:17;9.32;;;4.70;;
82783;SDS011;72520;55.762;37.780;2023-12-22T03:29:19;12.68;;;5.43;;
82783;SDS011;72520;55.762;37.780;2023-12-22T03:32:23;11.68;;;4.97;;
82783;SDS011;72520;55.762;37.780;2023-12-22T03:35:25;11.95;;;4.18;;
82783;SDS011;72520;55.762;37.780;2023-12-22T03:38:27;10.05;;;4.95;;
82783;SDS011;72520;55.762;37.780;2023-12-22T03:41:30;10.23;;;5.05;;
82783;SDS011;72520;55.762;37.780;2023-12-22T03:44:33;9.65;;;4.53;;
82783;SDS011;72520;55.762;37.780;2023-12-22T03:47:35;11.98;;;6.38;;
82783;SDS011;72520;55.762;37.780;2023-12-22T03:50:40;11.43;;;5.35;;
82783;SDS011;72520;55.762;37.780;2023-12-22T03:53:43;13.13;;;5.60;;
82783;SDS011;72520;55.762;37.780;2023-12-22T03:56:46;14.35;;;5.80;;
82783;SDS011;72520;55.762;37.780;2023-12-22T03:59:48;11.65;;;6.25;;
82783;SDS011;72520;55.762;37.780;2023-12-22T04:02:51;12.00;;;5.03;;
82783;SDS011;72520;55.762;37.780;2023-12-22T04:05:53;9.23;;;4.40;;
82783;SDS011;72520;55.762;37.780;2023-12-22T04:08:55;9.30;;;4.55;;
82783;SDS011;72520;55.762;37.780;2023-12-22T04:12:00;11.27;;;5.38;;
82783;SDS011;72520;55.762;37.780;2023-12-22T04:15:06;14.07;;;5.15;;
82783;SDS011;72520;55.762;37.780;2023-12-22T04:18:09;10.45;;;5.20;;
82783;SDS011;72520;55.762;37.780;2023-12-22T04:21:11;13.38;;;5.88;;
82783;SDS011;72520;55.762;37.780;2023-12-22T04:24:13;10.70;;;4.50;;
82783;SDS011;72520;55.762;37.780;2023-12-22T04:27:17;13.52;;;5.90;;
82783;SDS011;72520;55.762;37.780;2023-12-22T04:30:22;10.30;;;5.15;;
82783;SDS011;72520;55.762;37.780;2023-12-22T04:36:28;11.82;;;5.35;;
82783;SDS011;72520;55.762;37.780;2023-12-22T04:39:30;11.43;;;5.00;;
82783;SDS011;72520;55.762;37.780;2023-12-22T04:42:36;9.77;;;5.03;;
82783;SDS011;72520;55.762;37.780;2023-12-22T04:45:38;29.92;;;12.32;;
82783;SDS011;72520;55.762;37.780;2023-12-22T04:48:41;12.50;;;5.78;;
82783;SDS011;72520;55.762;37.780;2023-12-22T04:51:43;13.00;;;6.60;;
82783;SDS011;72520;55.762;37.780;2023-12-22T04:54:45;15.13;;;7.03;;
82783;SDS011;72520;55.762;37.780;2023-12-22T04:57:49;14.77;;;6.35;;
82783;SDS011;72520;55.762;37.780;2023-12-22T05:00:51;16.50;;;7.75;;
82783;SDS011;72520;55.762;37.780;2023-12-22T05:03:53;10.88;;;5.32;;
82783;SDS011;72520;55.762;37.780;2023-12-22T05:06:55;14.80;;;6.38;;
82783;SDS011;72520;55.762;37.780;2023-12-22T05:09:58;17.83;;;8.93;;
82783;SDS011;72520;55.762;37.780;2023-12-22T05:13:01;11.57;;;5.78;;
82783;SDS011;72520;55.762;37.780;2023-12-22T05:16:06;13.38;;;6.50;;
82783;SDS011;72520;55.762;37.780;2023-12-22T05:19:09;13.98;;;6.35;;
82783;SDS011;72520;55.762;37.780;2023-12-22T05:22:11;13.70;;;6.90;;
82783;SDS011;72520;55.762;37.780;2023-12-22T05:25:13;17.23;;;8.18;;
82783;SDS011;72520;55.762;37.780;2023-12-22T05:28:17;17.40;;;7.10;;
82783;SDS011;72520;55.762;37.780;2023-12-22T05:31:19;18.50;;;7.53;;
82783;SDS011;72520;55.762;37.780;2023-12-22T05:34:21;16.38;;;7.32;;
82783;SDS011;72520;55.762;37.780;2023-12-22T05:37:23;13.35;;;7.15;;
82783;SDS011;72520;55.762;37.780;2023-12-22T05:40:25;15.40;;;7.43;;
82783;SDS011;72520;55.762;37.780;2023-12-22T05:43:29;15.77;;;7.78;;
82783;SDS011;72520;55.762;37.780;2023-12-22T05:46:35;11.77;;;5.22;;
82783;SDS011;72520;55.762;37.780;2023-12-22T05:49:39;19.85;;;10.30;;
82783;SDS011;72520;55.762;37.780;2023-12-22T05:52:42;20.15;;;8.80;;
82783;SDS011;72520;55.762;37.780;2023-12-22T05:55:45;16.63;;;8.45;;
82783;SDS011;72520;55.762;37.780;2023-12-22T05:58:49;19.75;;;9.40;;
82783;SDS011;72520;55.762;37.780;2023-12-22T06:01:53;18.55;;;8.68;;
82783;SDS011;72520;55.762;37.780;2023-12-22T06:04:55;12.52;;;6.20;;
82783;SDS011;72520;55.762;37.780;2023-12-22T06:07:57;16.92;;;8.95;;
82783;SDS011;72520;55.762;37.780;2023-12-22T06:10:59;17.45;;;7.85;;
82783;SDS011;72520;55.762;37.780;2023-12-22T06:14:03;20.02;;;8.23;;
82783;SDS011;72520;55.762;37.780;2023-12-22T06:17:06;16.50;;;8.40;;
82783;SDS011;72520;55.762;37.780;2023-12-22T06:20:08;18.20;;;8.30;;
82783;SDS011;72520;55.762;37.780;2023-12-22T06:23:11;13.10;;;7.10;;
82783;SDS011;72520;55.762;37.780;2023-12-22T06:26:15;8.57;;;4.80;;
82783;SDS011;72520;55.762;37.780;2023-12-22T06:29:19;12.88;;;6.97;;
82783;SDS011;72520;55.762;37.780;2023-12-22T06:32:21;16.50;;;8.38;;
82783;SDS011;72520;55.762;37.780;2023-12-22T06:35:23;12.57;;;5.32;;
82783;SDS011;72520;55.762;37.780;2023-12-22T06:38:26;13.40;;;6.45;;
82783;SDS011;72520;55.762;37.780;2023-12-22T06:41:28;12.98;;;6.05;;
82783;SDS011;72520;55.762;37.780;2023-12-22T06:44:33;15.07;;;6.57;;
82783;SDS011;72520;55.762;37.780;2023-12-22T06:47:35;11.05;;;5.47;;
82783;SDS011;72520;55.762;37.780;2023-12-22T06:50:37;13.70;;;6.47;;
82783;SDS011;72520;55.762;37.780;2023-12-22T06:53:40;11.02;;;5.28;;
82783;SDS011;72520;55.762;37.780;2023-12-22T06:56:42;12.43;;;6.07;;
82783;SDS011;72520;55.762;37.780;2023-12-22T06:59:45;12.77;;;6.55;;
82783;SDS011;72520;55.762;37.780;2023-12-22T07:02:49;13.80;;;6.35;;
82783;SDS011;72520;55.762;37.780;2023-12-22T07:05:51;15.18;;;7.43;;
82783;SDS011;72520;55.762;37.780;2023-12-22T07:08:56;14.48;;;6.05;;
82783;SDS011;72520;55.762;37.780;2023-12-22T07:12:20;11.88;;;5.38;;
82783;SDS011;72520;55.762;37.780;2023-12-22T07:15:24;14.65;;;6.95;;
82783;SDS011;72520;55.762;37.780;2023-12-22T07:18:26;11.80;;;5.43;;
82783;SDS011;72520;55.762;37.780;2023-12-22T07:24:32;8.00;;;3.85;;
82783;SDS011;72520;55.762;37.780;2023-12-22T07:27:34;8.95;;;4.53;;
82783;SDS011;72520;55.762;37.780;2023-12-22T07:30:38;12.95;;;5.65;;
82783;SDS011;72520;55.762;37.780;2023-12-22T07:33:41;13.02;;;6.43;;
82783;SDS011;72520;55.762;37.780;2023-12-22T07:36:43;12.30;;;6.18;;
82783;SDS011;72520;55.762;37.780;2023-12-22T07:39:45;18.25;;;7.00;;
82783;SDS011;72520;55.762;37.780;2023-12-22T07:42:48;9.25;;;4.38;;
82783;SDS011;72520;55.762;37.780;2023-12-22T07:45:52;10.15;;;5.75;;
82783;SDS011;72520;55.762;37.780;2023-12-22T07:48:54;11.38;;;5.38;;
82783;SDS011;72520;55.762;37.780;2023-12-22T07:51:57;11.43;;;5.15;;
82783;SDS011;72520;55.762;37.780;2023-12-22T07:54:59;11.15;;;4.68;;
82783;SDS011;72520;55.762;37.780;2023-12-22T07:58:01;7.07;;;3.92;;
82783;SDS011;72520;55.762;37.780;2023-12-22T08:01:05;11.30;;;6.97;;
82783;SDS011;72520;55.762;37.780;2023-12-22T08:04:07;12.20;;;5.70;;
82783;SDS011;72520;55.762;37.780;2023-12-22T08:07:09;9.15;;;4.22;;
82783;SDS011;72520;55.762;37.780;2023-12-22T08:10:12;10.95;;;4.88;;
82783;SDS011;72520;55.762;37.780;2023-12-22T08:13:14;12.18;;;6.15;;
82783;SDS011;72520;55.762;37.780;2023-12-22T08:16:19;16.67;;;6.97;;
82783;SDS011;72520;55.762;37.780;2023-12-22T08:19:21;14.93;;;6.95;;
82783;SDS011;72520;55.762;37.780;2023-12-22T08:22:23;17.17;;;6.55;;
82783;SDS011;72520;55.762;37.780;2023-12-22T08:25:26;8.02;;;3.80;;
82783;SDS011;72520;55.762;37.780;2023-12-22T08:28:28;10.85;;;5.75;;
82783;SDS011;72520;55.762;37.780;2023-12-22T08:31:31;12.48;;;5.80;;
82783;SDS011;72520;55.762;37.780;2023-12-22T08:34:34;31.83;;;14.32;;
82783;SDS011;72520;55.762;37.780;2023-12-22T08:37:36;14.15;;;6.85;;
82783;SDS011;72520;55.762;37.780;2023-12-22T08:40:38;17.08;;;6.28;;
82783;SDS011;72520;55.762;37.780;2023-12-22T08:43:40;13.27;;;6.85;;
82783;SDS011;72520;55.762;37.780;2023-12-22T08:46:44;17.55;;;9.75;;
82783;SDS011;72520;55.762;37.780;2023-12-22T08:49:46;14.40;;;7.30;;
82783;SDS011;72520;55.762;37.780;2023-12-22T08:52:49;19.85;;;9.70;;
82783;SDS011;72520;55.762;37.780;2023-12-22T08:55:51;19.42;;;9.63;;
82783;SDS011;72520;55.762;37.780;2023-12-22T08:58:53;20.15;;;9.90;;
82783;SDS011;72520;55.762;37.780;2023-12-22T09:02:00;16.52;;;7.95;;
82783;SDS011;72520;55.762;37.780;2023-12-22T09:05:02;18.80;;;8.73;;
82783;SDS011;72520;55.762;37.780;2023-12-22T09:08:06;20.73;;;9.25;;
82783;SDS011;72520;55.762;37.780;2023-12-22T09:11:08;19.35;;;8.48;;
82783;SDS011;72520;55.762;37.780;2023-12-22T09:14:11;17.50;;;8.77;;
82783;SDS011;72520;55.762;37.780;2023-12-22T09:17:15;26.17;;;12.73;;
82783;SDS011;72520;55.762;37.780;2023-12-22T09:20:17;21.73;;;11.75;;
82783;SDS011;72520;55.762;37.780;2023-12-22T09:23:19;24.60;;;10.32;;
82783;SDS011;72520;55.762;37.780;2023-12-22T09:26:22;15.95;;;8.95;;
82783;SDS011;72520;55.762;37.780;2023-12-22T09:29:24;19.73;;;9.48;;
82783;SDS011;72520;55.762;37.780;2023-12-22T09:32:28;12.02;;;6.60;;
82783;SDS011;72520;55.762;37.780;2023-12-22T09:35:31;17.30;;;8.85;;
82783;SDS011;72520;55.762;37.780;2023-12-22T09:38:33;14.18;;;6.90;;
82783;SDS011;72520;55.762;37.780;2023-12-22T09:41:36;14.35;;;7.15;;
82783;SDS011;72520;55.762;37.780;2023-12-22T09:44:38;13.75;;;7.85;;
82783;SDS011;72520;55.762;37.780;2023-12-22T09:47:45;14.30;;;6.88;;
82783;SDS011;72520;55.762;37.780;2023-12-22T09:50:49;12.32;;;6.85;;
82783;SDS011;72520;55.762;37.780;2023-12-22T09:53:51;13.50;;;7.75;;
82783;SDS011;72520;55.762;37.780;2023-12-22T09:56:56;12.07;;;6.22;;
82783;SDS011;72520;55.762;37.780;2023-12-22T09:59:59;13.25;;;7.25;;
82783;SDS011;72520;55.762;37.780;2023-12-22T10:03:08;14.98;;;6.97;;
82783;SDS011;72520;55.762;37.780;2023-12-22T10:06:12;10.82;;;6.22;;
82783;SDS011;72520;55.762;37.780;2023-12-22T10:09:14;11.88;;;6.20;;
82783;SDS011;72520;55.762;37.780;2023-12-22T10:12:17;12.82;;;6.68;;
82783;SDS011;72520;55.762;37.780;2023-12-22T10:15:21;14.25;;;6.32;;
82783;SDS011;72520;55.762;37.780;2023-12-22T10:18:26;19.20;;;6.55;;
82783;SDS011;72520;55.762;37.780;2023-12-22T10:21:29;11.07;;;6.07;;
82783;SDS011;72520;55.762;37.780;2023-12-22T10:24:37;10.23;;;5.72;;
82783;SDS011;72520;55.762;37.780;2023-12-22T10:27:42;12.80;;;6.22;;
82783;SDS011;72520;55.762;37.780;2023-12-22T10:30:45;10.88;;;6.38;;
82783;SDS011;72520;55.762;37.780;2023-12-22T10:33:48;16.13;;;8.43;;
82783;SDS011;72520;55.762;37.780;2023-12-22T10:36:51;10.48;;;6.50;;
82783;SDS011;72520;55.762;37.780;2023-12-22T10:39:59;9.00;;;5.07;;
82783;SDS011;72520;55.762;37.780;2023-12-22T10:43:06;11.75;;;6.15;;
82783;SDS011;72520;55.762;37.780;2023-12-22T10:46:10;10.93;;;5.45;;
82783;SDS011;72520;55.762;37.780;2023-12-22T10:49:15;12.45;;;5.25;;
82783;SDS011;72520;55.762;37.780;2023-12-22T10:52:18;10.68;;;5.85;;
82783;SDS011;72520;55.762;37.780;2023-12-22T10:55:21;13.27;;;6.28;;
82783;SDS011;72520;55.762;37.780;2023-12-22T10:58:23;10.18;;;5.15;;
82783;SDS011;72520;55.762;37.780;2023-12-22T11:01:26;12.80;;;7.30;;
82783;SDS011;72520;55.762;37.780;2023-12-22T11:04:33;12.45;;;5.60;;
82783;SDS011;72520;55.762;37.780;2023-12-22T11:07:38;10.27;;;5.32;;
82783;SDS011;72520;55.762;37.780;2023-12-22T11:10:47;11.45;;;4.90;;
82783;SDS011;72520;55.762;37.780;2023-12-22T11:13:55;9.75;;;4.78;;
82783;SDS011;72520;55.762;37.780;2023-12-22T11:16:58;12.80;;;5.78;;
82783;SDS011;72520;55.762;37.780;2023-12-22T11:20:04;11.30;;;5.70;;
82783;SDS011;72520;55.762;37.780;2023-12-22T11:23:09;11.50;;;5.05;;
82783;SDS011;72520;55.762;37.780;2023-12-22T11:26:12;12.60;;;5.40;;
82783;SDS011;72520;55.762;37.780;2023-12-22T11:29:17;12.98;;;6.97;;
82783;SDS011;72520;55.762;37.780;2023-12-22T11:32:20;10.40;;;4.20;;
82783;SDS011;72520;55.762;37.780;2023-12-22T11:35:24;11.05;;;5.40;;
82783;SDS011;72520;55.762;37.780;2023-12-22T11:38:27;9.85;;;5.03;;
82783;SDS011;72520;55.762;37.780;2023-12-22T11:41:30;12.00;;;5.30;;
82783;SDS011;72520;55.762;37.780;2023-12-22T11:44:37;10.15;;;5.85;;
82783;SDS011;72520;55.762;37.780;2023-12-22T11:47:39;10.77;;;5.38;;
82783;SDS011;72520;55.762;37.780;2023-12-22T11:50:45;8.45;;;4.68;;
82783;SDS011;72520;55.762;37.780;2023-12-22T11:53:48;9.65;;;5.25;;
82783;SDS011;72520;55.762;37.780;2023-12-22T11:56:50;9.82;;;4.68;;
82783;SDS011;72520;55.762;37.780;2023-12-22T11:59:52;9.85;;;5.15;;
82783;SDS011;72520;55.762;37.780;2023-12-22T12:02:55;10.02;;;4.65;;
82783;SDS011;72520;55.762;37.780;2023-12-22T12:06:11;9.50;;;4.47;;
82783;SDS011;72520;55.762;37.780;2023-12-22T12:09:16;9.77;;;5.50;;
82783;SDS011;72520;55.762;37.780;2023-12-22T12:12:46;9.55;;;5.15;;
82783;SDS011;72520;55.762;37.780;2023-12-22T12:15:49;11.15;;;4.45;;
82783;SDS011;72520;55.762;37.780;2023-12-22T12:18:52;9.98;;;4.97;;
82783;SDS011;72520;55.762;37.780;2023-12-22T12:21:56;14.65;;;6.25;;
82783;SDS011;72520;55.762;37.780;2023-12-22T12:24:58;9.82;;;4.78;;
82783;SDS011;72520;55.762;37.780;2023-12-22T12:28:05;25.98;;;12.13;;
82783;SDS011;72520;55.762;37.780;2023-12-22T12:31:09;10.05;;;4.45;;
82783;SDS011;72520;55.762;37.780;2023-12-22T12:34:11;10.90;;;5.30;;
82783;SDS011;72520;55.762;37.780;2023-12-22T12:37:16;9.55;;;4.22;;
82783;SDS011;72520;55.762;37.780;2023-12-22T12:40:20;11.77;;;5.18;;
82783;SDS011;72520;55.762;37.780;2023-12-22T12:43:25;13.15;;;6.35;;
82783;SDS011;72520;55.762;37.780;2023-12-22T12:46:32;7.85;;;3.53;;
82783;SDS011;72520;55.762;37.780;2023-12-22T12:49:34;10.07;;;5.05;;
82783;SDS011;72520;55.762;37.780;2023-12-22T12:52:38;10.65;;;5.45;;
82783;SDS011;72520;55.762;37.780;2023-12-22T12:55:40;13.50;;;5.95;;
82783;SDS011;72520;55.762;37.780;2023-12-22T12:58:43;9.23;;;4.93;;
82783;SDS011;72520;55.762;37.780;2023-12-22T13:01:46;15.82;;;7.03;;
82783;SDS011;72520;55.762;37.780;2023-12-22T13:04:48;9.82;;;4.95;;
82783;SDS011;72520;55.762;37.780;2023-12-22T13:07:52;10.32;;;5.38;;
82783;SDS011;72520;55.762;37.780;2023-12-22T13:11:07;12.05;;;5.72;;
82783;SDS011;72520;55.762;37.780;2023-12-22T13:14:10;14.48;;;5.50;;
82783;SDS011;72520;55.762;37.780;2023-12-22T13:17:12;11.73;;;5.28;;
82783;SDS011;72520;55.762;37.780;2023-12-22T13:20:15;11.23;;;5.65;;
82783;SDS011;72520;55.762;37.780;2023-12-22T13:23:19;15.57;;;8.38;;
82783;SDS011;72520;55.762;37.780;2023-12-22T13:26:21;10.70;;;5.30;;
82783;SDS011;72520;55.762;37.780;2023-12-22T13:29:25;11.27;;;4.90;;
82783;SDS011;72520;55.762;37.780;2023-12-22T13:32:28;13.63;;;6.43;;
82783;SDS011;72520;55.762;37.780;2023-12-22T13:35:31;14.80;;;6.20;;
82783;SDS011;72520;55.762;37.780;2023-12-22T13:38:37;9.95;;;5.25;;
82783;SDS011;72520;55.762;37.780;2023-12-22T13:41:39;12.25;;;6.00;;
82783;SDS011;72520;55.762;37.780;2023-12-22T13:44:46;11.65;;;5.97;;
82783;SDS011;72520;55.762;37.780;2023-12-22T13:47:50;13.95;;;6.50;;
82783;SDS011;72520;55.762;37.780;2023-12-22T13:50:56;12.60;;;6.25;;
82783;SDS011;72520;55.762;37.780;2023-12-22T13:54:00;12.50;;;6.15;;
82783;SDS011;72520;55.762;37.780;2023-12-22T13:57:03;14.05;;;6.55;;
82783;SDS011;72520;55.762;37.780;2023-12-22T14:03:29;14.45;;;7.10;;
82783;SDS011;72520;55.762;37.780;2023-12-22T14:09:37;17.85;;;7.43;;
82783;SDS011;72520;55.762;37.780;2023-12-22T14:12:40;19.13;;;8.02;;
82783;SDS011;72520;55.762;37.780;2023-12-22T14:15:45;14.65;;;7.38;;
82783;SDS011;72520;55.762;37.780;2023-12-22T14:18:47;21.00;;;7.90;;
82783;SDS011;72520;55.762;37.780;2023-12-22T14:21:49;16.60;;;7.93;;
82783;SDS011;72520;55.762;37.780;2023-12-22T14:24:53;17.70;;;8.50;;
82783;SDS011;72520;55.762;37.780;2023-12-22T14:27:55;30.40;;;11.85;;
82783;SDS011;72520;55.762;37.780;2023-12-22T14:30:59;14.25;;;6.70;;
82783;SDS011;72520;55.762;37.780;2023-12-22T14:34:02;17.95;;;7.15;;
82783;SDS011;72520;55.762;37.780;2023-12-22T14:37:04;16.83;;;8.57;;
82783;SDS011;72520;55.762;37.780;2023-12-22T14:40:08;16.15;;;7.43;;
82783;SDS011;72520;55.762;37.780;2023-12-22T14:43:11;17.45;;;7.80;;
82783;SDS011;72520;55.762;37.780;2023-12-22T14:46:13;17.08;;;8.20;;
82783;SDS011;72520;55.762;37.780;2023-12-22T14:49:15;18.73;;;8.98;;
82783;SDS011;72520;55.762;37.780;2023-12-22T14:52:18;13.85;;;7.53;;
82783;SDS011;72520;55.762;37.780;2023-12-22T14:55:22;18.25;;;8.23;;
82783;SDS011;72520;55.762;37.780;2023-12-22T14:58:24;18.25;;;8.15;;
82783;SDS011;72520;55.762;37.780;2023-12-22T15:01:26;19.70;;;7.88;;
82783;SDS011;72520;55.762;37.780;2023-12-22T15:04:31;16.80;;;7.65;;
82783;SDS011;72520;55.762;37.780;2023-12-22T15:07:34;21.15;;;7.85;;
82783;SDS011;72520;55.762;37.780;2023-12-22T15:10:39;19.70;;;9.05;;
82783;SDS011;72520;55.762;37.780;2023-12-22T15:13:41;19.25;;;8.73;;
82783;SDS011;72520;55.762;37.780;2023-12-22T15:16:43;19.42;;;8.23;;
82783;SDS011;72520;55.762;37.780;2023-12-22T15:19:47;19.15;;;8.23;;
82783;SDS011;72520;55.762;37.780;2023-12-22T15:22:49;15.43;;;6.50;;
82783;SDS011;72520;55.762;37.780;2023-12-22T15:25:53;18.90;;;7.85;;
82783;SDS011;72520;55.762;37.780;2023-12-22T15:28:55;21.55;;;9.90;;
82783;SDS011;72520;55.762;37.780;2023-12-22T15:31:58;18.38;;;7.85;;
82783;SDS011;72520;55.762;37.780;2023-12-22T15:35:00;19.27;;;9.80;;
82783;SDS011;72520;55.762;37.780;2023-12-22T15:38:04;20.98;;;8.85;;
82783;SDS011;72520;55.762;37.780;2023-12-22T15:41:07;20.33;;;8.18;;
82783;SDS011;72520;55.762;37.780;2023-12-22T15:44:09;19.33;;;8.43;;
82783;SDS011;72520;55.762;37.780;2023-12-22T15:47:12;16.58;;;8.18;;
82783;SDS011;72520;55.762;37.780;2023-12-22T15:50:15;14.50;;;6.88;;
82783;SDS011;72520;55.762;37.780;2023-12-22T15:53:17;22.52;;;10.32;;
82783;SDS011;72520;55.762;37.780;2023-12-22T15:56:20;25.27;;;11.02;;
82783;SDS011;72520;55.762;37.780;2023-12-22T15:59:23;17.48;;;9.32;;
82783;SDS011;72520;55.762;37.780;2023-12-22T16:02:26;22.52;;;8.88;;
82783;SDS011;72520;55.762;37.780;2023-12-22T16:05:30;21.00;;;8.88;;
82783;SDS011;72520;55.762;37.780;2023-12-22T16:08:32;18.75;;;8.82;;
82783;SDS011;72520;55.762;37.780;2023-12-22T16:11:37;18.50;;;8.73;;
82783;SDS011;72520;55.762;37.780;2023-12-22T16:14:39;22.35;;;10.75;;
82783;SDS011;72520;55.762;37.780;2023-12-22T16:17:41;21.50;;;9.85;;
82783;SDS011;72520;55.762;37.780;2023-12-22T16:20:46;19.42;;;9.30;;
82783;SDS011;72520;55.762;37.780;2023-12-22T16:23:48;20.80;;;8.77;;
82783;SDS011;72520;55.762;37.780;2023-12-22T16:26:52;22.98;;;10.98;;
82783;SDS011;72520;55.762;37.780;2023-12-22T16:29:54;23.50;;;11.18;;
82783;SDS011;72520;55.762;37.780;2023-12-22T16:32:57;23.75;;;10.68;;
82783;SDS011;72520;55.762;37.780;2023-12-22T16:35:59;23.88;;;10.50;;
82783;SDS011;72520;55.762;37.780;2023-12-22T16:39:01;27.73;;;10.57;;
82783;SDS011;72520;55.762;37.780;2023-12-22T16:42:05;24.85;;;11.27;;
82783;SDS011;72520;55.762;37.780;2023-12-22T16:45:09;28.42;;;13.15;;
82783;SDS011;72520;55.762;37.780;2023-12-22T16:48:11;27.08;;;12.77;;
82783;SDS011;72520;55.762;37.780;2023-12-22T16:51:13;25.27;;;9.93;;
82783;SDS011;72520;55.762;37.780;2023-12-22T16:54:16;18.98;;;8.85;;
82783;SDS011;72520;55.762;37.780;2023-12-22T16:57:19;20.05;;;9.27;;
82783;SDS011;72520;55.762;37.780;2023-12-22T17:00:22;24.13;;;9.43;;
82783;SDS011;72520;55.762;37.780;2023-12-22T17:03:25;20.02;;;9.73;;
82783;SDS011;72520;55.762;37.780;2023-12-22T17:06:27;19.13;;;9.30;;
82783;SDS011;72520;55.762;37.780;2023-12-22T17:09:29;22.50;;;9.27;;
82783;SDS011;72520;55.762;37.780;2023-12-22T17:12:33;25.90;;;11.27;;
82783;SDS011;72520;55.762;37.780;2023-12-22T17:15:35;30.55;;;15.70;;
82783;SDS011;72520;55.762;37.780;2023-12-22T17:18:38;18.77;;;9.02;;
82783;SDS011;72520;55.762;37.780;2023-12-22T17:21:40;17.42;;;8.68;;
82783;SDS011;72520;55.762;37.780;2023-12-22T17:24:43;21.60;;;10.60;;
82783;SDS011;72520;55.762;37.780;2023-12-22T17:27:47;24.48;;;10.75;;
82783;SDS011;72520;55.762;37.780;2023-12-22T17:30:49;27.48;;;12.50;;
82783;SDS011;72520;55.762;37.780;2023-12-22T17:33:52;27.00;;;11.18;;
82783;SDS011;72520;55.762;37.780;2023-12-22T17:36:54;23.42;;;10.77;;
82783;SDS011;72520;55.762;37.780;2023-12-22T17:39:56;23.35;;;10.70;;
82783;SDS011;72520;55.762;37.780;2023-12-22T17:43:00;25.17;;;10.52;;
82783;SDS011;72520;55.762;37.780;2023-12-22T17:46:02;25.25;;;11.02;;
82783;SDS011;72520;55.762;37.780;2023-12-22T17:49:07;22.90;;;9.27;;
82783;SDS011;72520;55.762;37.780;2023-12-22T17:52:09;19.60;;;9.45;;
82783;SDS011;72520;55.762;37.780;2023-12-22T17:55:11;29.38;;;11.98;;
82783;SDS011;72520;55.762;37.780;2023-12-22T17:58:15;28.00;;;12.05;;
82783;SDS011;72520;55.762;37.780;2023-12-22T18:04:20;28.95;;;11.88;;
82783;SDS011;72520;55.762;37.780;2023-12-22T18:10:26;71.15;;;34.67;;
82783;SDS011;72520;55.762;37.780;2023-12-22T18:13:30;67.80;;;36.17;;